createdAt,value
2024-02-24T00:01:28.854Z,1.00
2024-02-24T00:05:37.510Z,1.00
2024-02-24T00:09:46.162Z,18.20
2024-02-24T00:13:55.747Z,6.30
2024-02-24T00:18:05.432Z,31.40
2024-02-24T00:22:14.154Z,55.50
2024-02-24T00:26:22.749Z,52.00
2024-02-24T00:30:31.316Z,40.50
2024-02-24T00:34:40.166Z,99.90
2024-02-24T00:38:48.850Z,99.90
2024-02-24T00:42:57.538Z,99.90
2024-02-24T00:47:06.213Z,99.90
2024-02-24T00:51:14.882Z,99.90
2024-02-24T00:55:23.915Z,99.90
2024-02-24T00:59:32.542Z,99.90
2024-02-24T01:03:41.228Z,99.90
2024-02-24T01:07:49.921Z,99.90
2024-02-24T01:11:58.566Z,99.90
2024-02-24T01:16:07.245Z,99.90
2024-02-24T01:20:15.909Z,99.90
2024-02-24T01:24:24.577Z,99.90
2024-02-24T01:28:33.202Z,99.90
2024-02-24T01:32:41.985Z,99.90
2024-02-24T01:36:50.657Z,99.90
2024-02-24T01:40:59.300Z,99.90
2024-02-24T01:45:08.392Z,99.90
2024-02-24T01:49:17.881Z,99.90
2024-02-24T01:53:27.559Z,71.50
2024-02-24T01:57:39.215Z,22.30
2024-02-24T02:01:48.350Z,29.10
2024-02-24T02:05:57.479Z,3.50
2024-02-24T02:10:06.884Z,10.40
2024-02-24T02:14:16.539Z,11.40
2024-02-24T02:18:25.559Z,57.70
2024-02-24T02:22:34.666Z,91.70
2024-02-24T02:26:43.636Z,99.90
2024-02-24T02:30:53.001Z,99.90
2024-02-24T02:35:01.624Z,99.90
2024-02-24T02:39:10.216Z,99.90
2024-02-24T02:43:18.811Z,99.90
2024-02-24T02:47:27.497Z,99.90
2024-02-24T02:51:36.236Z,99.90
2024-02-24T02:55:44.935Z,90.90
2024-02-24T02:59:53.787Z,96.30
2024-02-24T03:04:02.588Z,99.90
2024-02-24T03:08:11.280Z,47.00
2024-02-24T03:12:19.970Z,40.60
2024-02-24T03:16:28.568Z,33.00
2024-02-24T03:20:37.256Z,51.40
2024-02-24T03:24:45.950Z,72.40
2024-02-24T03:28:54.564Z,99.90
2024-02-24T03:33:22.555Z,99.90
2024-02-24T03:37:31.190Z,91.80
2024-02-24T03:41:39.925Z,75.50
2024-02-24T03:45:50.080Z,99.90
2024-02-24T03:49:58.704Z,62.10
2024-02-24T03:54:07.329Z,36.10
2024-02-24T03:58:15.916Z,16.00
2024-02-24T04:02:24.710Z,55.20
2024-02-24T04:06:33.322Z,99.90
2024-02-24T04:10:43.576Z,99.90
2024-02-24T04:14:52.290Z,99.90
2024-02-24T04:19:01.853Z,99.90
2024-02-24T04:23:10.682Z,93.50
2024-02-24T04:27:19.335Z,99.90
2024-02-24T04:31:30.872Z,99.90
2024-02-24T04:35:39.496Z,99.90
2024-02-24T04:39:48.105Z,99.90
2024-02-24T04:43:56.710Z,99.90
2024-02-24T04:48:05.652Z,96.20
2024-02-24T04:52:15.135Z,53.40
2024-02-24T04:56:23.709Z,28.60
2024-02-24T05:00:32.411Z,27.50
2024-02-24T05:04:41.009Z,66.20
2024-02-24T05:08:49.700Z,1.00
2024-02-24T05:12:58.247Z,8.00
2024-02-24T05:17:08.832Z,8.00
2024-02-24T05:21:23.826Z,1.00
2024-02-24T05:25:32.516Z,1.00
2024-02-24T05:29:47.143Z,1.00
2024-02-24T05:33:56.327Z,1.00
2024-02-24T05:38:05.062Z,1.00
2024-02-24T05:42:13.664Z,1.00
2024-02-24T05:46:22.212Z,1.00
2024-02-24T05:50:30.918Z,1.00
2024-02-24T05:54:42.713Z,1.00
2024-02-24T05:58:51.358Z,1.00
2024-02-24T06:03:00.002Z,1.00
2024-02-24T06:07:08.631Z,1.00
2024-02-24T06:11:17.422Z,1.00
2024-02-24T06:15:26.115Z,1.00
2024-02-24T06:19:34.791Z,1.00
2024-02-24T06:23:43.512Z,1.00
2024-02-24T06:27:52.086Z,1.00
2024-02-24T06:32:00.880Z,1.00
2024-02-24T06:36:09.726Z,1.00
2024-02-24T06:40:26.053Z,1.00
2024-02-24T06:44:28.673Z,1.00
2024-02-24T06:48:37.441Z,1.00
2024-02-24T06:52:46.112Z,1.00
2024-02-24T06:56:54.738Z,1.00
2024-02-24T07:01:06.955Z,1.00
2024-02-24T07:05:15.633Z,1.00
2024-02-24T07:09:24.270Z,1.00
2024-02-24T07:13:32.943Z,1.00
2024-02-24T07:17:42.476Z,1.00
2024-02-24T07:21:51.147Z,1.00
2024-02-24T07:26:01.660Z,1.00
2024-02-24T07:30:10.561Z,1.00
2024-02-24T07:34:19.347Z,1.00
2024-02-24T07:38:27.923Z,1.00
2024-02-24T07:42:36.529Z,1.00
2024-02-24T07:46:45.160Z,1.00
2024-02-24T07:50:53.849Z,1.00
2024-02-24T07:55:03.268Z,1.00
2024-02-24T07:59:11.938Z,1.00
2024-02-24T08:03:20.501Z,1.00
2024-02-24T08:07:30.000Z,1.00
2024-02-24T08:11:40.310Z,1.00
2024-02-24T08:15:49.073Z,1.00
2024-02-24T08:19:57.700Z,1.00
2024-02-24T08:24:10.159Z,1.00
2024-02-24T08:28:18.768Z,1.00
2024-02-24T08:32:27.487Z,1.00
2024-02-24T08:36:36.572Z,1.00
2024-02-24T08:40:45.423Z,1.00
2024-02-24T08:44:54.145Z,1.00
2024-02-24T08:49:02.884Z,99.90
2024-02-24T08:53:11.594Z,99.90
2024-02-24T08:57:20.250Z,99.90
2024-02-24T09:01:29.189Z,99.90
2024-02-24T09:05:37.882Z,1.00
2024-02-24T09:09:46.592Z,1.00
2024-02-24T09:13:55.255Z,1.00
2024-02-24T09:18:05.241Z,1.00
2024-02-24T09:22:14.260Z,1.00
2024-02-24T09:26:22.976Z,99.90
2024-02-24T09:30:31.583Z,99.90
2024-02-24T09:34:40.539Z,99.90
2024-02-24T09:38:49.253Z,99.90
2024-02-24T09:43:09.260Z,99.90
2024-02-24T09:47:18.689Z,99.90
2024-02-24T09:51:28.732Z,1.00
2024-02-24T09:55:38.445Z,1.00
2024-02-24T09:59:47.441Z,1.00
2024-02-24T10:03:56.236Z,99.90
2024-02-24T10:08:05.091Z,1.00
2024-02-24T10:12:13.769Z,99.90
2024-02-24T10:16:25.493Z,99.90
2024-02-24T10:20:34.164Z,99.90
2024-02-24T10:24:43.380Z,99.90
2024-02-24T10:28:52.104Z,62.10
2024-02-24T10:33:01.806Z,32.60
2024-02-24T10:37:10.706Z,1.00
2024-02-24T10:41:23.575Z,1.00
2024-02-24T10:45:31.521Z,1.00
2024-02-24T10:49:40.221Z,1.00
2024-02-24T10:53:54.591Z,1.00
2024-02-24T10:58:03.171Z,1.00
2024-02-24T11:02:13.731Z,1.00
2024-02-24T11:06:46.504Z,1.00
2024-02-24T11:10:55.375Z,1.00
2024-02-24T11:15:05.618Z,1.00
2024-02-24T11:19:14.501Z,1.00
2024-02-24T11:23:27.073Z,1.00
2024-02-24T11:27:38.262Z,1.00
2024-02-24T11:31:47.234Z,1.00
2024-02-24T11:35:57.054Z,1.00
2024-02-24T11:40:06.513Z,1.00
2024-02-24T11:44:15.145Z,1.00
2024-02-24T11:48:24.708Z,1.00
2024-02-24T11:52:34.883Z,1.00
2024-02-24T11:56:43.580Z,1.00
2024-02-24T12:00:52.215Z,1.00
2024-02-24T12:05:16.644Z,1.00
2024-02-24T12:09:25.892Z,1.00
2024-02-24T12:13:36.356Z,1.00
2024-02-24T12:17:46.283Z,1.00
2024-02-24T12:21:55.886Z,1.00
2024-02-24T12:26:21.485Z,1.00
2024-02-24T12:30:38.634Z,1.00
2024-02-24T12:34:47.361Z,1.00
2024-02-24T12:38:57.236Z,1.00
2024-02-24T12:43:09.437Z,1.00
2024-02-24T12:47:17.648Z,1.00
2024-02-24T12:51:26.218Z,1.00
2024-02-24T12:55:36.034Z,1.00
2024-02-24T12:59:44.744Z,1.00
2024-02-24T13:03:55.265Z,1.00
2024-02-24T13:08:04.063Z,1.00
2024-02-24T13:12:12.738Z,1.00
2024-02-24T13:16:21.410Z,1.00
2024-02-24T13:20:30.147Z,1.00
2024-02-24T13:24:38.808Z,1.00
2024-02-24T13:28:47.420Z,1.00
2024-02-24T13:32:56.529Z,1.00
2024-02-24T13:37:06.918Z,1.00
2024-02-24T13:41:15.837Z,1.00
2024-02-24T13:45:24.538Z,1.00
2024-02-24T13:49:33.364Z,1.00
2024-02-24T13:53:41.998Z,1.00
2024-02-24T13:57:50.689Z,1.00
2024-02-24T14:01:59.392Z,99.90
2024-02-24T14:06:08.595Z,1.00
2024-02-24T14:10:17.357Z,1.00
2024-02-24T14:14:27.612Z,1.00
2024-02-24T14:18:36.890Z,1.00
2024-02-24T14:22:45.676Z,1.00
2024-02-24T14:26:55.758Z,1.00
2024-02-24T14:31:04.536Z,1.00
2024-02-24T14:35:14.728Z,1.00
2024-02-24T14:39:23.535Z,1.00
2024-02-24T14:43:32.743Z,1.00
2024-02-24T14:47:41.480Z,1.00
2024-02-24T14:51:50.158Z,1.00
2024-02-24T14:55:58.911Z,1.00
2024-02-24T15:00:09.832Z,1.00
2024-02-24T15:04:20.200Z,99.90
2024-02-24T15:08:29.472Z,99.90
2024-02-24T15:12:38.144Z,99.90
2024-02-24T15:16:49.662Z,99.90
2024-02-24T15:20:58.388Z,1.00
2024-02-24T15:25:08.406Z,1.00
2024-02-24T15:33:26.540Z,1.00
2024-02-24T15:37:36.384Z,1.00
2024-02-24T15:41:49.012Z,1.00
2024-02-24T15:45:58.112Z,1.00
2024-02-24T15:50:07.121Z,1.00
2024-02-24T15:54:15.810Z,1.00
2024-02-24T15:58:24.418Z,1.00
2024-02-24T16:02:33.062Z,1.00
2024-02-24T16:06:42.250Z,1.00
2024-02-24T16:10:52.193Z,1.00
2024-02-24T16:15:02.238Z,1.00
2024-02-24T16:19:12.850Z,1.00
2024-02-24T16:23:21.198Z,1.00
2024-02-24T16:27:29.780Z,1.00
2024-02-24T16:31:38.375Z,1.00
2024-02-24T16:35:47.013Z,1.00
2024-02-24T16:39:56.979Z,1.00
2024-02-24T16:44:08.603Z,1.00
2024-02-24T16:48:19.073Z,1.00
2024-02-24T16:52:28.013Z,1.00
2024-02-24T16:56:36.676Z,1.00
2024-02-24T17:00:45.575Z,1.00
2024-02-24T17:04:55.783Z,1.00
2024-02-24T17:09:05.011Z,1.00
2024-02-24T17:13:13.971Z,1.00
2024-02-24T17:17:23.826Z,1.00
2024-02-24T17:21:32.472Z,1.00
2024-02-24T17:25:41.072Z,1.00
2024-02-24T17:29:49.771Z,1.00
2024-02-24T17:33:58.424Z,1.00
2024-02-24T17:38:07.472Z,1.00
2024-02-24T17:42:16.051Z,1.00
2024-02-24T17:46:24.964Z,1.00
2024-02-24T17:50:33.576Z,1.00
2024-02-24T17:54:42.215Z,1.00
2024-02-24T17:58:50.836Z,1.00
2024-02-24T18:02:59.460Z,1.00
2024-02-24T18:07:11.014Z,1.00
2024-02-24T18:11:20.662Z,1.00
2024-02-24T18:15:29.417Z,1.00
2024-02-24T18:19:38.042Z,1.00
2024-02-24T18:23:46.702Z,1.00
2024-02-24T18:27:55.306Z,1.00
2024-02-24T18:32:03.956Z,1.00
2024-02-24T18:36:12.584Z,1.00
2024-02-24T18:40:21.144Z,1.00
2024-02-24T18:44:29.839Z,1.00
2024-02-24T18:48:38.825Z,1.00
2024-02-24T18:52:47.590Z,1.00
2024-02-24T18:56:56.737Z,1.00
2024-02-24T19:01:05.602Z,1.00
2024-02-24T19:05:15.006Z,1.00
2024-02-24T19:09:24.488Z,1.00
2024-02-24T19:13:33.105Z,1.00
2024-02-24T19:17:42.241Z,1.00
2024-02-24T19:21:50.909Z,1.00
2024-02-24T19:25:59.559Z,1.00
2024-02-24T19:30:09.501Z,1.00
2024-02-24T19:34:19.818Z,1.00
2024-02-24T19:38:28.476Z,1.00
2024-02-24T19:42:37.146Z,1.00
2024-02-24T19:46:45.878Z,1.00
2024-02-24T19:50:54.582Z,1.00
2024-02-24T19:55:03.411Z,1.00
2024-02-24T19:59:12.020Z,1.00
2024-02-24T20:03:20.717Z,1.00
2024-02-24T20:07:32.454Z,1.00
2024-02-24T20:11:41.303Z,1.00
2024-02-24T20:15:51.358Z,1.00
2024-02-24T20:20:00.250Z,1.00
2024-02-24T20:24:09.083Z,1.00
2024-02-24T20:28:17.648Z,1.00
2024-02-24T20:32:26.356Z,1.00
2024-02-24T20:36:35.060Z,1.00
2024-02-24T20:40:43.673Z,1.00
2024-02-24T20:44:52.393Z,1.00
2024-02-24T20:49:01.113Z,1.00
2024-02-24T20:53:09.812Z,1.00
2024-02-24T20:57:18.505Z,1.00
2024-02-24T21:01:28.166Z,1.00
2024-02-24T21:05:36.982Z,1.00
2024-02-24T21:09:45.626Z,1.00
2024-02-24T21:13:54.280Z,1.00
2024-02-24T21:18:03.049Z,1.00
2024-02-24T21:22:11.665Z,1.00
2024-02-24T21:26:20.629Z,1.00
2024-02-24T21:30:29.255Z,1.00
2024-02-24T21:34:38.304Z,1.00
2024-02-24T21:38:47.512Z,1.00
2024-02-24T21:42:56.167Z,1.00
2024-02-24T21:47:04.873Z,1.00
2024-02-24T21:51:13.543Z,1.00
2024-02-24T21:55:22.208Z,1.00
2024-02-24T21:59:30.918Z,1.00
2024-02-24T22:03:39.635Z,1.00
2024-02-24T22:07:48.310Z,1.00
2024-02-24T22:11:56.934Z,1.00
2024-02-24T22:16:08.786Z,1.00
2024-02-24T22:20:17.480Z,1.00
2024-02-24T22:24:26.110Z,1.00
2024-02-24T22:28:34.748Z,1.00
2024-02-24T22:32:43.618Z,1.00
2024-02-24T22:36:52.707Z,1.00
2024-02-24T22:41:02.854Z,1.00
2024-02-24T22:45:11.558Z,1.00
2024-02-24T22:49:20.421Z,1.00
2024-02-24T22:53:29.180Z,1.00
2024-02-24T22:57:37.782Z,1.00
2024-02-24T23:01:46.533Z,1.00
2024-02-24T23:05:56.001Z,1.00
2024-02-24T23:10:06.456Z,1.00
2024-02-24T23:14:15.389Z,1.00
2024-02-24T23:18:24.261Z,1.00
2024-02-24T23:22:32.890Z,1.00
2024-02-24T23:26:41.779Z,1.00
2024-02-24T23:30:50.410Z,1.00
2024-02-24T23:34:59.092Z,1.00
2024-02-24T23:39:08.937Z,1.00
2024-02-24T23:43:17.749Z,1.00
2024-02-24T23:47:26.429Z,1.00
2024-02-24T23:51:37.176Z,1.00
2024-02-24T23:55:45.784Z,1.00
2024-02-24T23:59:54.432Z,1.00
